sensor_id;sensor_type;location;lat;lon;timestamp;pressure;altitude;pressure_sealevel;temperature;humidity
13058;BME280;6595;49.578;11.012;2023-05-31T00:00:23;994.744;;;14.12;47.2
13058;BME280;6595;49.578;11.012;2023-05-31T00:02:23;994.757;;;14.03;47.8
13058;BME280;6595;49.578;11.012;2023-05-31T00:04:23;994.757;;;14.03;47.8
13058;BME280;6595;49.578;11.012;2023-05-31T00:06:23;994.757;;;14.03;47.8
13058;BME280;6595;49.578;11.012;2023-05-31T00:08:24;994.706;;;13.87;47.9
13058;BME280;6595;49.578;11.012;2023-05-31T00:10:23;994.722;;;13.86;48.1
13058;BME280;6595;49.578;11.012;2023-05-31T00:12:23;994.729;;;13.84;48.4
13058;BME280;6595;49.578;11.012;2023-05-31T00:14:24;994.672;;;13.79;48.7
13058;BME280;6595;49.578;11.012;2023-05-31T00:16:24;994.715;;;13.73;49.0
13058;BME280;6595;49.578;11.012;2023-05-31T00:18:23;994.715;;;13.73;49.0
13058;BME280;6595;49.578;11.012;2023-05-31T00:20:24;994.647;;;13.58;49.1
13058;BME280;6595;49.578;11.012;2023-05-31T00:22:24;994.630;;;13.52;49.0
13058;BME280;6595;49.578;11.012;2023-05-31T00:24:23;994.705;;;13.49;49.6
13058;BME280;6595;49.578;11.012;2023-05-31T00:26:23;994.553;;;13.48;49.7
13058;BME280;6595;49.578;11.012;2023-05-31T00:28:24;994.588;;;13.36;50.5
13058;BME280;6595;49.578;11.012;2023-05-31T00:30:23;994.588;;;13.36;50.5
13058;BME280;6595;49.578;11.012;2023-05-31T00:32:23;994.556;;;13.23;50.4
13058;BME280;6595;49.578;11.012;2023-05-31T00:34:23;994.549;;;13.22;50.9
13058;BME280;6595;49.578;11.012;2023-05-31T00:36:24;994.515;;;13.19;50.6
13058;BME280;6595;49.578;11.012;2023-05-31T00:38:23;994.568;;;13.21;50.7
13058;BME280;6595;49.578;11.012;2023-05-31T00:40:23;994.568;;;13.21;50.7
13058;BME280;6595;49.578;11.012;2023-05-31T00:42:24;994.527;;;13.15;51.0
13058;BME280;6595;49.578;11.012;2023-05-31T00:44:23;994.488;;;13.12;51.1
13058;BME280;6595;49.578;11.012;2023-05-31T00:46:26;994.508;;;13.15;51.0
13058;BME280;6595;49.578;11.012;2023-05-31T00:48:24;994.410;;;13.12;51.3
13058;BME280;6595;49.578;11.012;2023-05-31T00:50:23;994.410;;;13.12;51.3
13058;BME280;6595;49.578;11.012;2023-05-31T00:52:25;994.468;;;13.11;51.0
13058;BME280;6595;49.578;11.012;2023-05-31T00:54:23;994.445;;;13.09;50.9
13058;BME280;6595;49.578;11.012;2023-05-31T00:56:23;994.379;;;13.06;50.9
13058;BME280;6595;49.578;11.012;2023-05-31T00:58:24;994.355;;;13.04;51.8
13058;BME280;6595;49.578;11.012;2023-05-31T01:00:24;994.332;;;12.95;51.4
13058;BME280;6595;49.578;11.012;2023-05-31T01:02:23;994.315;;;12.98;51.5
13058;BME280;6595;49.578;11.012;2023-05-31T01:04:25;994.357;;;12.90;52.3
13058;BME280;6595;49.578;11.012;2023-05-31T01:06:23;994.303;;;12.87;52.7
13058;BME280;6595;49.578;11.012;2023-05-31T01:08:23;994.316;;;12.80;52.3
13058;BME280;6595;49.578;11.012;2023-05-31T01:10:24;994.298;;;12.83;52.6
13058;BME280;6595;49.578;11.012;2023-05-31T01:12:28;994.385;;;12.87;52.3
13058;BME280;6595;49.578;11.012;2023-05-31T01:14:31;994.303;;;12.85;52.0
13058;BME280;6595;49.578;11.012;2023-05-31T01:16:29;994.346;;;12.84;52.2
13058;BME280;6595;49.578;11.012;2023-05-31T01:18:28;994.312;;;12.75;51.7
13058;BME280;6595;49.578;11.012;2023-05-31T01:20:24;994.294;;;12.67;51.9
13058;BME280;6595;49.578;11.012;2023-05-31T01:22:33;994.305;;;12.60;52.6
13058;BME280;6595;49.578;11.012;2023-05-31T01:24:27;994.338;;;12.50;53.1
13058;BME280;6595;49.578;11.012;2023-05-31T01:26:35;994.280;;;12.48;53.1
13058;BME280;6595;49.578;11.012;2023-05-31T01:28:25;994.337;;;12.44;53.6
13058;BME280;6595;49.578;11.012;2023-05-31T01:30:24;994.332;;;12.41;53.7
13058;BME280;6595;49.578;11.012;2023-05-31T01:32:23;994.378;;;12.34;54.3
13058;BME280;6595;49.578;11.012;2023-05-31T01:34:24;994.410;;;12.37;54.1
13058;BME280;6595;49.578;11.012;2023-05-31T01:36:23;994.364;;;12.20;55.2
13058;BME280;6595;49.578;11.012;2023-05-31T01:38:23;994.342;;;12.19;55.4
13058;BME280;6595;49.578;11.012;2023-05-31T01:40:24;994.368;;;12.19;55.3
13058;BME280;6595;49.578;11.012;2023-05-31T01:42:24;994.296;;;12.12;55.8
13058;BME280;6595;49.578;11.012;2023-05-31T01:44:24;994.366;;;12.13;56.0
13058;BME280;6595;49.578;11.012;2023-05-31T01:46:24;994.375;;;12.12;55.6
13058;BME280;6595;49.578;11.012;2023-05-31T01:48:24;994.423;;;12.04;55.7
13058;BME280;6595;49.578;11.012;2023-05-31T01:50:24;994.401;;;12.06;56.0
13058;BME280;6595;49.578;11.012;2023-05-31T01:52:25;994.422;;;12.01;56.4
13058;BME280;6595;49.578;11.012;2023-05-31T01:54:24;994.390;;;11.99;56.3
13058;BME280;6595;49.578;11.012;2023-05-31T01:56:23;994.425;;;11.96;56.7
13058;BME280;6595;49.578;11.012;2023-05-31T01:58:25;994.425;;;11.89;57.2
13058;BME280;6595;49.578;11.012;2023-05-31T02:00:24;994.413;;;11.87;57.2
13058;BME280;6595;49.578;11.012;2023-05-31T02:02:23;994.426;;;11.86;57.1
13058;BME280;6595;49.578;11.012;2023-05-31T02:04:23;994.450;;;11.85;57.2
13058;BME280;6595;49.578;11.012;2023-05-31T02:06:24;994.450;;;11.85;57.2
13058;BME280;6595;49.578;11.012;2023-05-31T02:08:24;994.400;;;11.72;58.2
13058;BME280;6595;49.578;11.012;2023-05-31T02:10:23;994.518;;;11.65;58.5
13058;BME280;6595;49.578;11.012;2023-05-31T02:12:24;994.421;;;11.47;59.3
13058;BME280;6595;49.578;11.012;2023-05-31T02:14:23;994.365;;;11.43;59.6
13058;BME280;6595;49.578;11.012;2023-05-31T02:16:23;994.427;;;11.49;59.2
13058;BME280;6595;49.578;11.012;2023-05-31T02:18:24;994.427;;;11.43;59.2
13058;BME280;6595;49.578;11.012;2023-05-31T02:20:24;994.444;;;11.42;59.1
13058;BME280;6595;49.578;11.012;2023-05-31T02:22:24;994.370;;;11.43;59.3
13058;BME280;6595;49.578;11.012;2023-05-31T02:24:23;994.369;;;11.41;59.1
13058;BME280;6595;49.578;11.012;2023-05-31T02:26:23;994.371;;;11.33;59.3
13058;BME280;6595;49.578;11.012;2023-05-31T02:28:24;994.406;;;11.29;59.4
13058;BME280;6595;49.578;11.012;2023-05-31T02:30:26;994.406;;;11.29;59.4
13058;BME280;6595;49.578;11.012;2023-05-31T02:32:23;994.362;;;11.33;59.4
13058;BME280;6595;49.578;11.012;2023-05-31T02:34:24;994.408;;;11.32;59.4
13058;BME280;6595;49.578;11.012;2023-05-31T02:36:23;994.343;;;11.29;59.2
13058;BME280;6595;49.578;11.012;2023-05-31T02:38:23;994.481;;;11.28;59.4
13058;BME280;6595;49.578;11.012;2023-05-31T02:40:24;994.319;;;11.25;59.4
13058;BME280;6595;49.578;11.012;2023-05-31T02:42:24;994.319;;;11.25;59.4
13058;BME280;6595;49.578;11.012;2023-05-31T02:44:23;994.358;;;11.22;59.6
13058;BME280;6595;49.578;11.012;2023-05-31T02:46:23;994.371;;;11.19;59.9
13058;BME280;6595;49.578;11.012;2023-05-31T02:48:24;994.331;;;11.19;60.1
13058;BME280;6595;49.578;11.012;2023-05-31T02:50:23;994.416;;;11.15;60.1
13058;BME280;6595;49.578;11.012;2023-05-31T02:52:23;994.416;;;11.15;60.1
13058;BME280;6595;49.578;11.012;2023-05-31T02:54:24;994.416;;;11.15;60.1
13058;BME280;6595;49.578;11.012;2023-05-31T02:56:24;994.357;;;11.18;60.5
13058;BME280;6595;49.578;11.012;2023-05-31T02:58:23;994.377;;;11.18;60.4
13058;BME280;6595;49.578;11.012;2023-05-31T03:00:24;994.403;;;11.11;60.5
13058;BME280;6595;49.578;11.012;2023-05-31T03:02:24;994.314;;;11.12;60.6
13058;BME280;6595;49.578;11.012;2023-05-31T03:04:24;994.342;;;11.12;60.7
13058;BME280;6595;49.578;11.012;2023-05-31T03:06:23;994.281;;;11.10;60.7
13058;BME280;6595;49.578;11.012;2023-05-31T03:08:24;994.291;;;11.08;60.8
13058;BME280;6595;49.578;11.012;2023-05-31T03:10:23;994.331;;;11.07;61.1
13058;BME280;6595;49.578;11.012;2023-05-31T03:12:23;994.401;;;11.07;60.9
13058;BME280;6595;49.578;11.012;2023-05-31T03:14:23;994.448;;;11.11;60.8
13058;BME280;6595;49.578;11.012;2023-05-31T03:16:24;994.413;;;11.04;61.1
13058;BME280;6595;49.578;11.012;2023-05-31T03:18:24;994.304;;;11.01;61.1
13058;BME280;6595;49.578;11.012;2023-05-31T03:20:23;994.334;;;11.00;61.2
13058;BME280;6595;49.578;11.012;2023-05-31T03:22:23;994.324;;;10.94;61.7
13058;BME280;6595;49.578;11.012;2023-05-31T03:24:23;994.377;;;10.90;61.5
13058;BME280;6595;49.578;11.012;2023-05-31T03:26:24;994.354;;;10.88;61.6
13058;BME280;6595;49.578;11.012;2023-05-31T03:28:23;994.341;;;10.88;61.7
13058;BME280;6595;49.578;11.012;2023-05-31T03:30:23;994.299;;;10.80;61.8
13058;BME280;6595;49.578;11.012;2023-05-31T03:32:24;994.319;;;10.82;61.9
13058;BME280;6595;49.578;11.012;2023-05-31T03:34:24;994.378;;;10.81;62.1
13058;BME280;6595;49.578;11.012;2023-05-31T03:36:24;994.316;;;10.80;62.1
13058;BME280;6595;49.578;11.012;2023-05-31T03:38:23;994.322;;;10.78;62.4
13058;BME280;6595;49.578;11.012;2023-05-31T03:40:24;994.385;;;10.85;62.1
13058;BME280;6595;49.578;11.012;2023-05-31T03:42:24;994.347;;;10.94;61.7
13058;BME280;6595;49.578;11.012;2023-05-31T03:44:23;994.327;;;10.98;61.7
13058;BME280;6595;49.578;11.012;2023-05-31T03:46:24;994.311;;;11.02;61.8
13058;BME280;6595;49.578;11.012;2023-05-31T03:48:24;994.361;;;11.04;61.8
13058;BME280;6595;49.578;11.012;2023-05-31T03:50:23;994.376;;;11.08;61.3
13058;BME280;6595;49.578;11.012;2023-05-31T03:52:23;994.346;;;11.15;61.1
13058;BME280;6595;49.578;11.012;2023-05-31T03:54:24;994.309;;;11.19;60.7
13058;BME280;6595;49.578;11.012;2023-05-31T03:56:23;994.285;;;11.25;60.6
13058;BME280;6595;49.578;11.012;2023-05-31T03:58:23;994.285;;;11.25;60.6
13058;BME280;6595;49.578;11.012;2023-05-31T04:00:23;994.314;;;11.26;60.6
13058;BME280;6595;49.578;11.012;2023-05-31T04:02:24;994.390;;;11.26;60.2
13058;BME280;6595;49.578;11.012;2023-05-31T04:04:23;994.322;;;11.28;60.0
13058;BME280;6595;49.578;11.012;2023-05-31T04:06:23;994.430;;;11.31;59.7
13058;BME280;6595;49.578;11.012;2023-05-31T04:08:23;994.454;;;11.38;60.0
13058;BME280;6595;49.578;11.012;2023-05-31T04:10:24;994.385;;;11.39;59.3
13058;BME280;6595;49.578;11.012;2023-05-31T04:12:24;994.438;;;11.46;59.3
13058;BME280;6595;49.578;11.012;2023-05-31T04:14:23;994.386;;;11.49;59.4
13058;BME280;6595;49.578;11.012;2023-05-31T04:16:23;994.402;;;11.62;58.9
13058;BME280;6595;49.578;11.012;2023-05-31T04:18:24;994.447;;;11.68;58.3
13058;BME280;6595;49.578;11.012;2023-05-31T04:20:23;994.450;;;11.72;58.4
13058;BME280;6595;49.578;11.012;2023-05-31T04:22:23;994.450;;;11.72;58.4
13058;BME280;6595;49.578;11.012;2023-05-31T04:24:24;994.539;;;11.87;57.6
13058;BME280;6595;49.578;11.012;2023-05-31T04:26:24;994.529;;;11.96;57.4
13058;BME280;6595;49.578;11.012;2023-05-31T04:28:23;994.517;;;12.09;57.2
13058;BME280;6595;49.578;11.012;2023-05-31T04:30:24;994.546;;;12.17;56.3
13058;BME280;6595;49.578;11.012;2023-05-31T04:32:24;994.634;;;12.27;56.9
13058;BME280;6595;49.578;11.012;2023-05-31T04:34:24;994.671;;;12.30;56.6
13058;BME280;6595;49.578;11.012;2023-05-31T04:36:23;994.590;;;12.40;56.2
13058;BME280;6595;49.578;11.012;2023-05-31T04:38:24;994.606;;;12.43;55.9
13058;BME280;6595;49.578;11.012;2023-05-31T04:40:24;994.609;;;12.51;57.9
13058;BME280;6595;49.578;11.012;2023-05-31T04:42:23;994.670;;;12.57;57.2
13058;BME280;6595;49.578;11.012;2023-05-31T04:44:24;994.765;;;12.64;56.4
13058;BME280;6595;49.578;11.012;2023-05-31T04:46:23;994.698;;;12.68;56.7
13058;BME280;6595;49.578;11.012;2023-05-31T04:48:23;994.684;;;12.75;57.7
13058;BME280;6595;49.578;11.012;2023-05-31T04:50:23;994.779;;;12.77;57.1
13058;BME280;6595;49.578;11.012;2023-05-31T04:52:24;994.730;;;12.92;56.6
13058;BME280;6595;49.578;11.012;2023-05-31T04:54:23;994.739;;;13.01;56.5
13058;BME280;6595;49.578;11.012;2023-05-31T04:56:24;994.806;;;13.05;56.0
13058;BME280;6595;49.578;11.012;2023-05-31T04:58:24;994.788;;;13.16;55.9
13058;BME280;6595;49.578;11.012;2023-05-31T05:00:24;994.718;;;13.19;56.0
13058;BME280;6595;49.578;11.012;2023-05-31T05:02:23;994.797;;;13.26;55.5
13058;BME280;6595;49.578;11.012;2023-05-31T05:04:23;994.797;;;13.26;55.5
13058;BME280;6595;49.578;11.012;2023-05-31T05:06:24;994.721;;;13.48;54.8
13058;BME280;6595;49.578;11.012;2023-05-31T05:08:23;994.691;;;13.58;54.7
13058;BME280;6595;49.578;11.012;2023-05-31T05:10:23;994.758;;;13.65;54.6
13058;BME280;6595;49.578;11.012;2023-05-31T05:12:24;994.616;;;13.80;53.4
13058;BME280;6595;49.578;11.012;2023-05-31T05:14:24;994.690;;;13.86;53.7
13058;BME280;6595;49.578;11.012;2023-05-31T05:16:23;994.779;;;14.03;52.9
13058;BME280;6595;49.578;11.012;2023-05-31T05:18:23;994.825;;;14.20;52.9
13058;BME280;6595;49.578;11.012;2023-05-31T05:20:24;994.824;;;14.33;51.6
13058;BME280;6595;49.578;11.012;2023-05-31T05:22:23;994.824;;;14.33;51.6
13058;BME280;6595;49.578;11.012;2023-05-31T05:24:23;994.871;;;14.52;50.5
13058;BME280;6595;49.578;11.012;2023-05-31T05:26:24;994.870;;;14.81;50.6
13058;BME280;6595;49.578;11.012;2023-05-31T05:28:23;994.870;;;14.81;50.6
13058;BME280;6595;49.578;11.012;2023-05-31T05:30:23;994.910;;;15.02;49.3
13058;BME280;6595;49.578;11.012;2023-05-31T05:32:24;995.024;;;15.15;48.6
13058;BME280;6595;49.578;11.012;2023-05-31T05:34:23;994.980;;;15.19;48.2
13058;BME280;6595;49.578;11.012;2023-05-31T05:36:23;995.094;;;15.31;48.1
13058;BME280;6595;49.578;11.012;2023-05-31T05:38:23;995.057;;;15.36;47.8
13058;BME280;6595;49.578;11.012;2023-05-31T05:40:24;995.182;;;15.54;47.4
13058;BME280;6595;49.578;11.012;2023-05-31T05:42:23;995.102;;;15.57;47.4
13058;BME280;6595;49.578;11.012;2023-05-31T05:44:23;995.059;;;15.73;47.0
13058;BME280;6595;49.578;11.012;2023-05-31T05:46:24;995.102;;;15.80;46.9
13058;BME280;6595;49.578;11.012;2023-05-31T05:48:23;995.192;;;15.86;46.4
13058;BME280;6595;49.578;11.012;2023-05-31T05:50:23;995.138;;;15.89;45.9
13058;BME280;6595;49.578;11.012;2023-05-31T05:52:24;995.123;;;15.98;45.6
13058;BME280;6595;49.578;11.012;2023-05-31T05:54:23;995.150;;;16.04;45.5
13058;BME280;6595;49.578;11.012;2023-05-31T05:56:24;995.179;;;16.16;45.3
13058;BME280;6595;49.578;11.012;2023-05-31T05:58:24;995.137;;;16.28;45.6
13058;BME280;6595;49.578;11.012;2023-05-31T06:00:23;995.210;;;16.32;45.0
13058;BME280;6595;49.578;11.012;2023-05-31T06:02:24;995.182;;;16.43;44.5
13058;BME280;6595;49.578;11.012;2023-05-31T06:04:24;995.218;;;16.55;44.3
13058;BME280;6595;49.578;11.012;2023-05-31T06:06:23;995.240;;;16.64;44.3
13058;BME280;6595;49.578;11.012;2023-05-31T06:08:23;995.263;;;16.76;44.3
13058;BME280;6595;49.578;11.012;2023-05-31T06:10:24;995.230;;;16.82;43.8
13058;BME280;6595;49.578;11.012;2023-05-31T06:12:23;995.255;;;16.88;43.0
13058;BME280;6595;49.578;11.012;2023-05-31T06:14:23;995.251;;;16.99;42.8
13058;BME280;6595;49.578;11.012;2023-05-31T06:16:24;995.280;;;17.06;42.8
13058;BME280;6595;49.578;11.012;2023-05-31T06:18:23;995.284;;;17.21;42.2
13058;BME280;6595;49.578;11.012;2023-05-31T06:20:23;995.244;;;17.29;42.5
13058;BME280;6595;49.578;11.012;2023-05-31T06:22:23;995.251;;;17.43;42.0
13058;BME280;6595;49.578;11.012;2023-05-31T06:24:24;995.248;;;17.50;41.9
13058;BME280;6595;49.578;11.012;2023-05-31T06:26:23;995.255;;;17.56;40.9
13058;BME280;6595;49.578;11.012;2023-05-31T06:28:24;995.247;;;17.59;41.2
13058;BME280;6595;49.578;11.012;2023-05-31T06:30:24;995.243;;;17.67;40.8
13058;BME280;6595;49.578;11.012;2023-05-31T06:32:23;995.311;;;17.72;40.4
13058;BME280;6595;49.578;11.012;2023-05-31T06:34:23;995.250;;;17.72;41.0
13058;BME280;6595;49.578;11.012;2023-05-31T06:36:24;995.285;;;17.86;39.9
13058;BME280;6595;49.578;11.012;2023-05-31T06:38:23;995.195;;;17.83;40.0
13058;BME280;6595;49.578;11.012;2023-05-31T06:40:24;995.234;;;17.87;40.1
13058;BME280;6595;49.578;11.012;2023-05-31T06:42:24;995.228;;;17.97;40.5
13058;BME280;6595;49.578;11.012;2023-05-31T06:44:23;995.290;;;18.01;39.5
13058;BME280;6595;49.578;11.012;2023-05-31T06:46:24;995.290;;;18.01;39.5
13058;BME280;6595;49.578;11.012;2023-05-31T06:48:23;995.237;;;18.25;39.3
13058;BME280;6595;49.578;11.012;2023-05-31T06:50:23;995.292;;;18.30;38.9
13058;BME280;6595;49.578;11.012;2023-05-31T06:52:24;995.288;;;18.37;38.3
13058;BME280;6595;49.578;11.012;2023-05-31T06:54:23;995.288;;;18.37;38.3
13058;BME280;6595;49.578;11.012;2023-05-31T06:56:24;995.230;;;18.50;37.8
13058;BME280;6595;49.578;11.012;2023-05-31T06:58:23;995.332;;;18.51;38.3
13058;BME280;6595;49.578;11.012;2023-05-31T07:00:23;995.249;;;18.44;38.0
13058;BME280;6595;49.578;11.012;2023-05-31T07:02:24;995.174;;;18.58;37.4
13058;BME280;6595;49.578;11.012;2023-05-31T07:04:23;995.174;;;18.58;37.4
13058;BME280;6595;49.578;11.012;2023-05-31T07:06:24;995.241;;;18.66;37.8
13058;BME280;6595;49.578;11.012;2023-05-31T07:08:24;995.221;;;18.66;37.6
13058;BME280;6595;49.578;11.012;2023-05-31T07:10:23;995.208;;;18.74;37.7
13058;BME280;6595;49.578;11.012;2023-05-31T07:12:23;995.160;;;18.82;37.5
13058;BME280;6595;49.578;11.012;2023-05-31T07:14:24;995.249;;;18.89;38.0
13058;BME280;6595;49.578;11.012;2023-05-31T07:16:23;995.201;;;18.92;36.6
13058;BME280;6595;49.578;11.012;2023-05-31T07:18:23;995.109;;;19.02;36.4
13058;BME280;6595;49.578;11.012;2023-05-31T07:20:24;995.172;;;19.10;36.6
13058;BME280;6595;49.578;11.012;2023-05-31T07:22:24;995.159;;;19.18;36.8
13058;BME280;6595;49.578;11.012;2023-05-31T07:24:23;995.115;;;19.29;37.0
13058;BME280;6595;49.578;11.012;2023-05-31T07:26:23;995.115;;;19.19;36.3
13058;BME280;6595;49.578;11.012;2023-05-31T07:28:24;995.126;;;19.25;36.5
13058;BME280;6595;49.578;11.012;2023-05-31T07:30:23;995.062;;;19.33;35.8
13058;BME280;6595;49.578;11.012;2023-05-31T07:32:24;995.028;;;19.37;35.9
13058;BME280;6595;49.578;11.012;2023-05-31T07:34:24;994.948;;;19.49;35.8
13058;BME280;6595;49.578;11.012;2023-05-31T07:36:23;995.002;;;19.57;35.6
13058;BME280;6595;49.578;11.012;2023-05-31T07:38:24;995.133;;;19.66;35.8
13058;BME280;6595;49.578;11.012;2023-05-31T07:40:23;995.090;;;19.60;35.6
13058;BME280;6595;49.578;11.012;2023-05-31T07:42:23;995.031;;;19.63;35.3
13058;BME280;6595;49.578;11.012;2023-05-31T07:44:24;994.987;;;19.67;35.1
13058;BME280;6595;49.578;11.012;2023-05-31T07:46:23;994.958;;;19.74;34.9
13058;BME280;6595;49.578;11.012;2023-05-31T07:48:23;994.989;;;19.78;34.2
13058;BME280;6595;49.578;11.012;2023-05-31T07:50:24;994.980;;;19.88;34.9
13058;BME280;6595;49.578;11.012;2023-05-31T07:52:23;994.934;;;19.93;34.2
13058;BME280;6595;49.578;11.012;2023-05-31T07:54:24;994.961;;;20.06;35.0
13058;BME280;6595;49.578;11.012;2023-05-31T07:56:24;994.920;;;20.11;35.0
13058;BME280;6595;49.578;11.012;2023-05-31T07:58:23;994.907;;;20.20;34.5
13058;BME280;6595;49.578;11.012;2023-05-31T08:00:24;994.950;;;20.25;34.0
13058;BME280;6595;49.578;11.012;2023-05-31T08:02:23;994.970;;;20.27;32.8
13058;BME280;6595;49.578;11.012;2023-05-31T08:04:23;994.952;;;20.39;32.9
13058;BME280;6595;49.578;11.012;2023-05-31T08:06:23;994.943;;;20.47;32.8
13058;BME280;6595;49.578;11.012;2023-05-31T08:08:24;994.887;;;20.52;32.2
13058;BME280;6595;49.578;11.012;2023-05-31T08:10:23;994.965;;;20.55;32.1
13058;BME280;6595;49.578;11.012;2023-05-31T08:12:23;994.932;;;20.54;31.7
13058;BME280;6595;49.578;11.012;2023-05-31T08:14:24;994.884;;;20.65;31.2
13058;BME280;6595;49.578;11.012;2023-05-31T08:16:23;994.919;;;20.79;30.9
13058;BME280;6595;49.578;11.012;2023-05-31T08:18:23;994.967;;;20.92;31.6
13058;BME280;6595;49.578;11.012;2023-05-31T08:20:23;994.967;;;20.92;31.6
13058;BME280;6595;49.578;11.012;2023-05-31T08:22:24;994.903;;;21.22;33.0
13058;BME280;6595;49.578;11.012;2023-05-31T08:24:23;994.923;;;21.23;30.4
13058;BME280;6595;49.578;11.012;2023-05-31T08:26:23;994.921;;;21.26;31.3
13058;BME280;6595;49.578;11.012;2023-05-31T08:28:24;994.996;;;21.25;31.2
13058;BME280;6595;49.578;11.012;2023-05-31T08:30:23;994.953;;;21.23;31.0
13058;BME280;6595;49.578;11.012;2023-05-31T08:32:23;994.953;;;21.23;31.0
13058;BME280;6595;49.578;11.012;2023-05-31T08:34:23;994.972;;;21.33;30.7
13058;BME280;6595;49.578;11.012;2023-05-31T08:36:24;995.000;;;21.50;31.0
13058;BME280;6595;49.578;11.012;2023-05-31T08:38:23;994.967;;;21.52;30.1
13058;BME280;6595;49.578;11.012;2023-05-31T08:42:25;994.963;;;21.54;30.2
13058;BME280;6595;49.578;11.012;2023-05-31T08:44:23;994.932;;;21.66;29.2
13058;BME280;6595;49.578;11.012;2023-05-31T08:46:24;994.872;;;21.63;30.0
13058;BME280;6595;49.578;11.012;2023-05-31T08:48:26;994.915;;;21.66;31.9
13058;BME280;6595;49.578;11.012;2023-05-31T08:50:24;994.915;;;21.66;31.9
13058;BME280;6595;49.578;11.012;2023-05-31T08:52:24;994.896;;;21.60;31.3
13058;BME280;6595;49.578;11.012;2023-05-31T08:54:24;994.948;;;21.57;30.0
13058;BME280;6595;49.578;11.012;2023-05-31T08:56:25;994.863;;;21.64;30.4
13058;BME280;6595;49.578;11.012;2023-05-31T08:58:24;994.822;;;21.72;30.1
13058;BME280;6595;49.578;11.012;2023-05-31T09:00:23;994.811;;;21.66;29.5
13058;BME280;6595;49.578;11.012;2023-05-31T09:02:24;994.766;;;21.68;28.8
13058;BME280;6595;49.578;11.012;2023-05-31T09:04:25;994.790;;;21.68;29.2
13058;BME280;6595;49.578;11.012;2023-05-31T09:06:23;994.779;;;21.81;30.0
13058;BME280;6595;49.578;11.012;2023-05-31T09:08:24;994.807;;;21.87;28.8
13058;BME280;6595;49.578;11.012;2023-05-31T09:10:24;994.730;;;22.00;30.4
13058;BME280;6595;49.578;11.012;2023-05-31T09:12:23;994.803;;;22.07;31.4
13058;BME280;6595;49.578;11.012;2023-05-31T09:14:24;994.816;;;21.97;30.1
13058;BME280;6595;49.578;11.012;2023-05-31T09:16:23;994.816;;;21.97;30.1
13058;BME280;6595;49.578;11.012;2023-05-31T09:18:23;994.743;;;21.91;28.9
13058;BME280;6595;49.578;11.012;2023-05-31T09:20:31;994.800;;;21.94;29.4
13058;BME280;6595;49.578;11.012;2023-05-31T09:22:24;994.722;;;22.04;26.6
13058;BME280;6595;49.578;11.012;2023-05-31T09:24:23;994.775;;;21.98;28.0
13058;BME280;6595;49.578;11.012;2023-05-31T09:26:24;994.698;;;22.11;28.8
13058;BME280;6595;49.578;11.012;2023-05-31T09:28:24;994.733;;;22.25;28.4
13058;BME280;6595;49.578;11.012;2023-05-31T09:30:23;994.648;;;22.37;29.0
13058;BME280;6595;49.578;11.012;2023-05-31T09:32:24;994.649;;;22.48;28.1
13058;BME280;6595;49.578;11.012;2023-05-31T09:34:25;994.800;;;22.50;28.6
13058;BME280;6595;49.578;11.012;2023-05-31T09:36:24;994.680;;;22.62;28.1
13058;BME280;6595;49.578;11.012;2023-05-31T09:38:31;994.718;;;22.62;28.8
13058;BME280;6595;49.578;11.012;2023-05-31T09:40:24;994.618;;;22.75;28.3
13058;BME280;6595;49.578;11.012;2023-05-31T09:42:24;994.642;;;22.86;27.3
13058;BME280;6595;49.578;11.012;2023-05-31T09:44:25;994.768;;;22.94;26.9
13058;BME280;6595;49.578;11.012;2023-05-31T09:46:24;994.768;;;22.94;26.9
13058;BME280;6595;49.578;11.012;2023-05-31T09:48:24;994.673;;;22.91;26.9
13058;BME280;6595;49.578;11.012;2023-05-31T09:50:24;994.526;;;22.94;27.1
13058;BME280;6595;49.578;11.012;2023-05-31T09:52:26;994.635;;;22.98;28.0
13058;BME280;6595;49.578;11.012;2023-05-31T09:54:24;994.588;;;22.89;27.7
13058;BME280;6595;49.578;11.012;2023-05-31T09:56:24;994.588;;;22.91;27.9
13058;BME280;6595;49.578;11.012;2023-05-31T09:58:27;994.561;;;22.99;26.7
13058;BME280;6595;49.578;11.012;2023-05-31T10:00:25;994.571;;;23.03;26.3
13058;BME280;6595;49.578;11.012;2023-05-31T10:02:24;994.443;;;23.05;26.3
13058;BME280;6595;49.578;11.012;2023-05-31T10:04:23;994.568;;;23.29;27.2
13058;BME280;6595;49.578;11.012;2023-05-31T10:06:24;994.577;;;23.26;27.1
13058;BME280;6595;49.578;11.012;2023-05-31T10:08:24;994.452;;;23.37;26.8
13058;BME280;6595;49.578;11.012;2023-05-31T10:10:23;994.493;;;23.43;27.0
13058;BME280;6595;49.578;11.012;2023-05-31T10:12:25;994.409;;;23.43;27.3
13058;BME280;6595;49.578;11.012;2023-05-31T10:14:24;994.365;;;23.42;26.3
13058;BME280;6595;49.578;11.012;2023-05-31T10:16:24;994.372;;;23.56;25.5
13058;BME280;6595;49.578;11.012;2023-05-31T10:18:28;994.308;;;23.63;26.3
13058;BME280;6595;49.578;11.012;2023-05-31T10:20:25;994.374;;;23.79;25.7
13058;BME280;6595;49.578;11.012;2023-05-31T10:22:23;994.447;;;23.80;25.5
13058;BME280;6595;49.578;11.012;2023-05-31T10:24:25;994.427;;;24.00;26.4
13058;BME280;6595;49.578;11.012;2023-05-31T10:26:31;994.456;;;24.07;25.5
13058;BME280;6595;49.578;11.012;2023-05-31T10:28:27;994.313;;;24.10;25.6
13058;BME280;6595;49.578;11.012;2023-05-31T10:30:27;994.301;;;24.11;25.2
13058;BME280;6595;49.578;11.012;2023-05-31T10:32:25;994.317;;;24.13;25.7
13058;BME280;6595;49.578;11.012;2023-05-31T10:34:25;994.373;;;24.47;25.0
13058;BME280;6595;49.578;11.012;2023-05-31T10:36:23;994.405;;;24.34;24.2
13058;BME280;6595;49.578;11.012;2023-05-31T10:38:28;994.365;;;24.47;24.4
13058;BME280;6595;49.578;11.012;2023-05-31T10:40:30;994.361;;;24.48;24.7
13058;BME280;6595;49.578;11.012;2023-05-31T10:42:28;994.427;;;24.68;24.5
13058;BME280;6595;49.578;11.012;2023-05-31T10:44:29;994.402;;;24.72;24.8
13058;BME280;6595;49.578;11.012;2023-05-31T10:46:25;994.429;;;24.79;24.3
13058;BME280;6595;49.578;11.012;2023-05-31T10:48:29;994.411;;;25.02;23.9
13058;BME280;6595;49.578;11.012;2023-05-31T10:50:23;994.353;;;25.22;24.5
13058;BME280;6595;49.578;11.012;2023-05-31T10:52:28;994.342;;;25.59;23.6
13058;BME280;6595;49.578;11.012;2023-05-31T10:54:26;994.359;;;25.72;23.2